Detall de PIREP

Printer-friendly versionPDF version

[2012/12/02 07:11:00]
Flight IATA:CT3400
Pilot Number:012
Company ICAO:CAT
Aircraft Type:B752/E
PAX:0
Aircraft Registration:CARGO
Departing Airport: LEBL
Destination Airport: BIKF
Alternate Airport:BIEG
Online: VATSIM
Route:MOPAS/M080F340 UN863 TIRAV UT183 DEGEX/M080F360 UN490 BERAD UM142 INSUN UN160 LEDGO DCT AGORI DCT KEF
Flight Level:F360
No Slew and time accel
No pause
Crash detect
Detect pilot in Cockpit between each 30 and 45 minutes
07:11 Zero fuel Weight: 176118 Lbs, Fuel Weight: 45685 Lbs
07:11 VATSIM:LEBL 020700Z 32013KT 9999 FEW030 03/M02 Q1018 NOSIG
07:11 VATSIM:BIKF 020700Z 12034G48KT 9999 FEW010 BKN015 BKN021 04/02 Q0999
07:11 VOICE CATALONIAN
07:14 Parking Brakes off
07:26 Take-off
07:26 Take off Weight: 220115 Lbs
07:26 Wind: 322º @ 013 Knots Heading: 249º
07:26 POS N41º 17´ 05´´ E002º 04´ 53´´
07:26 Gear Up: 211 Knots
07:26 Flaps:2 at 211 Knots
07:26 Flaps:1 at 217 Knots
07:26 Flaps:0 at 221 Knots
07:41 Wind:010º@059 Knots Heading: 335º Ground Speed: 417 Knots Altitude 32700 ft
07:56 Wind:000º@060 Knots Heading: 333º Ground Speed: 407 Knots Altitude 34268 ft
08:11 Wind:356º@064 Knots Heading: 332º Ground Speed: 401 Knots Altitude 34199 ft
08:26 Wind:351º@067 Knots Heading: 331º Ground Speed: 397 Knots Altitude 34173 ft
08:34 TOC
08:34 Fuel Weight: 32238 Lb
08:41 Wind:347º@062 Knots Heading: 329º Ground Speed: 397 Knots Altitude 36174 ft
08:56 Wind:341º@065 Knots Heading: 331º Ground Speed: 392 Knots Altitude 36138 ft
09:11 Wind:335º@062 Knots Heading: 317º Ground Speed: 396 Knots Altitude 36069 ft
09:26 Wind:313º@058 Knots Heading: 330º Ground Speed: 401 Knots Altitude 36053 ft
09:41 Wind:294º@051 Knots Heading: 327º Ground Speed: 419 Knots Altitude 36003 ft
09:56 Wind:276º@049 Knots Heading: 325º GroundSpeed: 425 Knots Altitude 36026 ft
10:11 Wind:261º@055 Knots Heading: 322º Ground Speed: 432 Knots Altitude 36023 ft
10:26 Wind:307º@067 Knots Heading: 325º Ground Speed: 393 Knots Altitude 35948 ft
10:41 Wind:206º@049 Knots Heading: 321º Ground Speed: 439 Knots Altitude 35787 ft
10:56 Wind:200º@049 Knots Heading: 320º Ground Speed: 483 Knots Altitude 35741 ft
11:09 TOD
11:09 Fuel Weight: 12876 Lb
11:11 Wind:197º@047 Knots Heading: 318º Ground Speed: 485 Knots Altitude 31049 ft
11:23 Flaps:1 at 226 Knots
11:25 Flaps:2 at 184 Knots
11:26 Wind:148º@023 Knots Heading: 245º Ground Speed: 201 Knots Altitude 1902 ft
11:26 Flaps:3 at 187 Knots
11:27 Flaps:4 at 155 Knots
11:27 Gear Down: 161 Knots
11:28 Flaps:5 at 176 Knots
11:28 Flaps:6 at 162 Knots
11:30 TouchDown:Rate -414 ft/min Speed: 141 Knots
11:30 VATSIM:BIKF 021100Z 21011KT 4000 -RASN FEW007 BKN015 OVC020 02/01 Q0996
11:30 Land
11:30 Wind:147º@030 Knots
11:30 Heading: 091º
11:30 Flight Duration: 04:04
11:30 Landing Weight: 187466 Lbs
11:30 POS N63º 59´ 06´´ W022º 36´ 32´´
11:38 Parking brakes on
11:38 Block to Block Duration: 04:24
11:38 Final Fuel: 10720 Lbls
11:38 Spent Fuel: 34964 Lbls
11:38 Flight Length: 1644 NM
11:38 TOD Land Length: 112 NM

Exportar CSV

Powered by Drupal - Modified by Danger4k